Time;durP1;ratioP1;P1;durP2;ratioP2;P2;SDS_P1;SDS_P2;PMS_P1;PMS_P2;Temp;Humidity;BMP_temperature;BMP_pressure;BME280_temperature;BME280_humidity;BME280_pressure;Samples;Min_cycle;Max_cycle;Signal;HPM_P1;HPM_P2
2022/07/15 00:01:04;;;;;;;4.90;1.87;;;;;;;15.19;62.70;100813.48;1703888;83;21074;-85
2022/07/15 00:03:31;;;;;;;3.75;2.10;;;;;;;15.18;62.73;100805.06;1679705;83;21091;-86
2022/07/15 00:05:59;;;;;;;5.22;1.60;;;;;;;15.16;62.81;100810.35;1667885;84;21335;-85
2022/07/15 00:08:28;;;;;;;7.17;1.90;;;;;;;15.14;62.87;100809.01;1671051;84;21853;-85
2022/07/15 00:10:58;;;;;;;5.92;1.70;;;;;;;15.13;63.01;100810.35;1639416;85;21066;-86
2022/07/15 00:13:25;;;;;;;4.83;1.77;;;;;;;15.13;63.03;100805.05;1665142;85;21087;-85
2022/07/15 00:15:52;;;;;;;5.15;1.87;;;;;;;15.12;63.12;100803.25;1659782;84;21145;-86
2022/07/15 00:18:21;;;;;;;7.03;1.52;;;;;;;15.11;63.19;100809.01;1638494;85;21143;-86
2022/07/15 00:20:48;;;;;;;3.58;1.50;;;;;;;15.07;63.26;100799.67;1654617;85;21617;-85
2022/07/15 00:23:16;;;;;;;5.05;1.98;;;;;;;15.07;63.36;100801.91;1653438;84;21122;-85
2022/07/15 00:25:43;;;;;;;2.92;1.40;;;;;;;15.04;63.52;100797.91;1655174;84;21154;-85
2022/07/15 00:28:12;;;;;;;3.72;1.40;;;;;;;15.03;63.58;100806.72;1688399;84;21590;-86
2022/07/15 00:30:40;;;;;;;5.40;1.32;;;;;;;15.00;63.70;100809.78;1655871;84;21599;-85
2022/07/15 00:33:10;;;;;;;3.37;1.32;;;;;;;14.96;63.84;100813.75;1653635;84;21719;-86
2022/07/15 00:35:41;;;;;;;3.70;1.32;;;;;;;14.91;63.96;100814.14;1659512;85;21091;-86
2022/07/15 00:38:09;;;;;;;6.00;1.82;;;;;;;14.87;64.06;100808.38;1658520;84;21110;-86
2022/07/15 00:40:49;;;;;;;5.65;1.50;;;;;;;14.85;64.19;100799.97;1653408;85;22290;-86
2022/07/15 00:43:22;;;;;;;4.20;1.50;;;;;;;14.81;64.29;100803.03;1647520;84;21102;-86
2022/07/15 00:45:48;;;;;;;8.63;1.22;;;;;;;14.77;64.46;100806.09;1653006;84;21821;-86
2022/07/15 00:48:15;;;;;;;2.02;1.20;;;;;;;14.74;64.54;100807.82;1662774;84;21642;-86
2022/07/15 00:50:41;;;;;;;3.50;1.55;;;;;;;14.71;64.57;100815.73;1659508;84;21700;-86
2022/07/15 00:53:21;;;;;;;3.87;1.15;;;;;;;14.68;64.67;100824.55;1663924;84;21125;-86
2022/07/15 00:55:46;;;;;;;3.95;1.47;;;;;;;14.65;64.71;100820.98;1663535;84;21103;-86
2022/07/15 00:58:30;;;;;;;4.25;1.00;;;;;;;14.60;64.78;100814.30;1654674;84;22366;-86
2022/07/15 01:00:56;;;;;;;1.60;0.90;;;;;;;14.57;64.76;100814.29;1702942;83;22045;-86
2022/07/15 01:03:26;;;;;;;1.65;0.80;;;;;;;14.54;64.81;100812.44;1673009;83;21151;-85
2022/07/15 01:05:52;;;;;;;6.78;1.42;;;;;;;14.50;64.82;100817.27;1656943;84;21037;-85
2022/07/15 01:08:25;;;;;;;3.45;1.10;;;;;;;14.48;64.96;100815.04;1639444;85;20995;-85
2022/07/15 01:10:54;;;;;;;2.20;0.72;;;;;;;14.45;65.05;100815.03;1651273;84;22066;-86
2022/07/15 01:13:21;;;;;;;1.98;0.90;;;;;;;14.43;65.14;100822.48;1661235;84;21595;-85
2022/07/15 01:15:50;;;;;;;3.77;1.30;;;;;;;14.41;65.24;100817.17;1698428;83;21145;-85
2022/07/15 01:18:16;;;;;;;3.52;1.02;;;;;;;14.41;65.34;100818.50;1679241;84;21093;-85
2022/07/15 01:20:46;;;;;;;2.45;0.70;;;;;;;14.40;65.39;100822.03;1685448;83;21336;-86
2022/07/15 01:23:12;;;;;;;2.20;1.00;;;;;;;14.39;65.48;100825.09;1674145;83;23052;-85
2022/07/15 01:25:40;;;;;;;6.50;1.20;;;;;;;14.41;65.56;100822.91;1672579;84;21098;-85
2022/07/15 01:28:08;;;;;;;2.58;1.07;;;;;;;14.41;65.64;100827.77;1681015;83;21152;-85
2022/07/15 01:30:36;;;;;;;3.95;1.30;;;;;;;14.39;65.62;100829.06;1678643;83;21700;-86
2022/07/15 01:33:03;;;;;;;1.65;0.72;;;;;;;14.39;65.66;100829.51;1697608;83;21093;-85
2022/07/15 01:35:35;;;;;;;2.60;1.05;;;;;;;14.40;65.70;100828.66;1696233;83;22563;-86
2022/07/15 01:38:05;;;;;;;2.52;1.25;;;;;;;14.38;65.70;100829.08;1643128;85;21110;-85
2022/07/15 01:40:36;;;;;;;7.33;1.47;;;;;;;14.35;65.75;100827.27;1672460;84;20948;-86
2022/07/15 01:43:01;;;;;;;3.65;1.12;;;;;;;14.32;65.94;100821.95;1654012;84;21184;-86
2022/07/15 01:45:30;;;;;;;4.53;1.42;;;;;;;14.29;66.00;100831.17;1709451;83;21100;-85
2022/07/15 01:48:00;;;;;;;3.45;1.10;;;;;;;14.27;66.08;100826.30;1705342;83;22187;-86
2022/07/15 01:50:28;;;;;;;3.95;1.17;;;;;;;14.25;66.10;100826.72;1710668;82;21109;-85
2022/07/15 01:52:56;;;;;;;5.90;1.27;;;;;;;14.20;66.19;100819.16;1691141;81;21093;-86
2022/07/15 01:55:26;;;;;;;2.45;1.15;;;;;;;14.16;66.34;100823.53;1693315;83;21090;-86
2022/07/15 01:57:53;;;;;;;3.72;1.30;;;;;;;14.16;66.50;100826.62;1679643;84;21127;-86
2022/07/15 02:00:21;;;;;;;4.22;1.10;;;;;;;14.16;66.54;100822.20;1655803;85;21078;-85
2022/07/15 02:02:48;;;;;;;1.80;1.02;;;;;;;14.14;66.58;100822.63;1676218;84;21150;-85
2022/07/15 02:05:15;;;;;;;4.22;1.00;;;;;;;14.11;66.68;100820.37;1681617;83;22138;-86
2022/07/15 02:07:45;;;;;;;3.60;1.12;;;;;;;14.10;66.80;100825.23;1697309;83;21069;-85
2022/07/15 02:10:11;;;;;;;2.25;1.10;;;;;;;14.06;66.86;100815.04;1720173;82;22024;-86
2022/07/15 02:12:38;;;;;;;5.35;1.32;;;;;;;14.05;66.95;100813.69;1713702;83;21699;-86
2022/07/15 02:15:06;;;;;;;5.10;1.17;;;;;;;14.02;67.00;100817.62;1693092;83;21094;-86
2022/07/15 02:17:34;;;;;;;5.72;1.32;;;;;;;13.98;67.07;100808.75;1693346;82;21074;-86
2022/07/15 02:20:01;;;;;;;3.45;1.15;;;;;;;13.94;67.14;100812.23;1695042;83;21085;-86
2022/07/15 02:22:28;;;;;;;3.95;1.15;;;;;;;13.88;67.20;100810.84;1695107;82;21136;-86
2022/07/15 02:24:55;;;;;;;4.85;1.32;;;;;;;13.84;67.33;100816.97;1697515;83;21790;-86
2022/07/15 02:27:21;;;;;;;3.87;1.40;;;;;;;13.79;67.40;100816.48;1710732;81;21105;-85
2022/07/15 02:29:53;;;;;;;4.67;1.32;;;;;;;13.76;67.54;100812.91;1715064;82;21109;-86
2022/07/15 02:32:19;;;;;;;4.20;1.32;;;;;;;13.71;67.60;100813.27;1690186;83;21629;-86
2022/07/15 02:34:46;;;;;;;3.37;1.27;;;;;;;13.67;67.73;100815.43;1678129;83;21080;-86
2022/07/15 02:37:13;;;;;;;3.77;1.10;;;;;;;13.63;67.86;100817.14;1693755;83;21764;-86
2022/07/15 02:39:41;;;;;;;4.17;1.30;;;;;;;13.58;67.94;100815.74;1661164;84;21082;-86
2022/07/15 02:42:09;;;;;;;2.98;0.93;;;;;;;13.53;68.08;100816.14;1694981;82;21162;-86
2022/07/15 02:44:36;;;;;;;5.20;1.40;;;;;;;13.50;68.18;100818.72;1683636;82;21105;-86
2022/07/15 02:47:03;;;;;;;4.53;1.02;;;;;;;13.48;68.30;100819.14;1643742;84;21120;-85
2022/07/15 02:49:32;;;;;;;2.87;1.20;;;;;;;13.46;68.42;100818.64;1667378;84;21755;-86
2022/07/15 02:52:02;;;;;;;4.92;1.37;;;;;;;13.45;68.53;100816.44;1659617;83;21121;-86
2022/07/15 02:54:27;;;;;;;4.92;1.82;;;;;;;13.44;68.58;100817.73;1659480;83;21156;-86
2022/07/15 02:56:54;;;;;;;6.30;2.30;;;;;;;13.43;68.67;100818.62;1659784;84;21088;-86
2022/07/15 02:59:21;;;;;;;7.80;1.72;;;;;;;13.45;68.84;100820.84;1660370;84;21149;-85
2022/07/15 03:01:48;;;;;;;9.13;3.52;;;;;;;13.49;68.89;100820.02;1660167;84;21874;-86
2022/07/15 03:04:16;;;;;;;10.63;2.42;;;;;;;13.55;69.00;100826.30;1666593;84;21371;-86
2022/07/15 03:06:43;;;;;;;11.53;2.98;;;;;;;13.63;69.05;100818.88;1665080;83;21054;-86
2022/07/15 03:09:10;;;;;;;7.55;2.47;;;;;;;13.71;69.07;100827.83;1663504;84;21604;-86
2022/07/15 03:11:38;;;;;;;4.85;2.40;;;;;;;13.75;69.01;100827.87;1657468;85;21077;-86
2022/07/15 03:14:06;;;;;;;3.60;1.75;;;;;;;13.80;69.01;100826.18;1656420;84;23193;-86
2022/07/15 03:16:33;;;;;;;4.17;1.32;;;;;;;13.87;68.97;100835.10;1711801;83;21191;-86
2022/07/15 03:19:00;;;;;;;7.15;2.37;;;;;;;13.92;68.96;100836.02;1711914;82;21081;-86
2022/07/15 03:21:27;;;;;;;7.47;1.10;;;;;;;13.97;68.87;100834.78;1711815;82;21081;-86
2022/07/15 03:23:57;;;;;;;5.65;1.42;;;;;;;14.02;68.86;100840.11;1711562;82;21089;-86
2022/07/15 03:26:24;;;;;;;1.70;0.90;;;;;;;14.04;68.75;100844.98;1711844;83;23074;-86
2022/07/15 03:28:51;;;;;;;3.12;1.42;;;;;;;14.05;68.66;100846.33;1675451;83;21074;-86
2022/07/15 03:31:17;;;;;;;2.65;0.85;;;;;;;14.09;68.70;100848.59;1711102;82;21129;-86
2022/07/15 03:33:44;;;;;;;5.05;1.00;;;;;;;14.16;68.77;100847.35;1702127;83;21074;-86
2022/07/15 03:36:11;;;;;;;3.67;1.25;;;;;;;14.35;68.87;100840.50;1656443;84;21145;-85
2022/07/15 03:38:38;;;;;;;3.85;1.27;;;;;;;14.55;68.68;100842.49;1656125;84;21789;-85
2022/07/15 03:41:08;;;;;;;3.02;1.10;;;;;;;14.75;68.58;100846.26;1655322;84;21085;-86
2022/07/15 03:43:37;;;;;;;3.50;1.07;;;;;;;15.06;68.62;100845.64;1671125;84;21171;-86
2022/07/15 03:46:04;;;;;;;4.80;1.50;;;;;;;15.94;69.59;100848.44;1671028;84;21595;-86
2022/07/15 03:48:31;;;;;;;2.50;1.05;;;;;;;17.32;69.92;100832.28;1671755;85;21080;-86
2022/07/15 03:51:00;;;;;;;3.27;1.22;;;;;;;19.50;69.10;100837.75;1670595;84;23038;-86
2022/07/15 03:53:26;;;;;;;2.65;0.82;;;;;;;20.87;64.98;100829.74;1696666;84;21066;-86
2022/07/15 03:55:53;;;;;;;2.15;1.10;;;;;;;22.45;64.03;100828.53;1672202;84;22232;-86
2022/07/15 03:58:19;;;;;;;2.55;1.10;;;;;;;23.34;60.87;100819.63;1670615;84;21079;-86
2022/07/15 04:00:46;;;;;;;2.12;0.82;;;;;;;24.59;59.16;100825.47;1670528;84;21558;-86
2022/07/15 04:03:13;;;;;;;4.85;1.10;;;;;;;24.37;55.70;100819.38;1675980;83;23038;-86
2022/07/15 04:05:40;;;;;;;3.52;1.15;;;;;;;24.93;55.77;100821.20;1675329;83;21689;-86
2022/07/15 04:08:07;;;;;;;4.20;0.90;;;;;;;23.19;52.24;100824.07;1682418;83;21099;-86
2022/07/15 04:10:33;;;;;;;2.83;1.07;;;;;;;22.09;52.42;100800.23;1684525;83;21521;-86
2022/07/15 04:13:00;;;;;;;3.00;0.90;;;;;;;22.09;52.42;100800.23;1683744;83;21115;-86
2022/07/15 04:15:30;;;;;;;2.42;0.90;;;;;;;21.51;52.70;100831.77;1662768;83;21732;-86
2022/07/15 04:17:58;;;;;;;2.85;0.90;;;;;;;20.91;52.85;100829.69;1685220;83;21070;-86
2022/07/15 04:20:25;;;;;;;3.30;0.95;;;;;;;20.31;53.05;100838.58;1706821;83;20978;-86
2022/07/15 04:22:52;;;;;;;7.03;1.37;;;;;;;19.75;53.23;100829.03;1685834;83;21131;-86
2022/07/15 04:25:20;;;;;;;2.08;0.70;;;;;;;19.22;53.67;100828.67;1679629;85;21095;-86
2022/07/15 04:27:52;;;;;;;2.70;1.00;;;;;;;18.91;54.22;100835.17;1683628;83;21763;-86
2022/07/15 04:30:16;;;;;;;2.65;1.40;;;;;;;18.75;54.72;100834.35;1682837;85;21095;-86
2022/07/15 04:32:42;;;;;;;3.05;0.82;;;;;;;18.79;54.94;100839.67;1683543;83;21120;-86
2022/07/15 04:35:09;;;;;;;2.37;0.82;;;;;;;18.71;54.87;100844.16;1684572;83;21079;-86
2022/07/15 04:37:36;;;;;;;3.55;0.98;;;;;;;18.55;54.90;100848.72;1684556;83;21110;-86
2022/07/15 04:40:06;;;;;;;3.47;1.20;;;;;;;18.31;55.00;100852.86;1695494;83;21746;-86
2022/07/15 04:42:32;;;;;;;4.85;1.02;;;;;;;18.10;55.29;100853.86;1670934;85;21132;-86
2022/07/15 04:44:59;;;;;;;2.65;1.00;;;;;;;17.94;55.48;100852.56;1673252;85;21133;-87
2022/07/15 04:47:26;;;;;;;2.77;0.95;;;;;;;17.80;55.78;100846.38;1671843;84;21235;-87
2022/07/15 04:52:45;;;;;;;2.55;0.70;;;;;;;17.97;56.33;100855.22;1672314;85;21783;-86
2022/07/15 04:55:12;;;;;;;5.60;1.57;;;;;;;17.98;56.23;100850.35;1670292;84;21184;-86
2022/07/15 04:57:39;;;;;;;6.08;1.30;;;;;;;17.88;56.33;100846.81;1672215;85;21103;-86
2022/07/15 05:00:09;;;;;;;3.00;1.00;;;;;;;17.96;56.51;100858.80;1674968;85;21037;-86
2022/07/15 05:02:37;;;;;;;2.65;1.42;;;;;;;18.28;56.83;100853.73;1675555;85;21049;-85
2022/07/15 05:05:06;;;;;;;3.47;1.37;;;;;;;18.53;56.65;100864.30;1672594;84;21744;-86
2022/07/15 05:07:33;;;;;;;4.60;1.25;;;;;;;20.95;59.19;100857.28;1661242;84;21000;-87
2022/07/15 05:10:00;;;;;;;2.42;1.00;;;;;;;24.30;57.27;100854.11;1668321;85;20988;-86
2022/07/15 05:12:27;;;;;;;5.35;1.32;;;;;;;26.99;53.72;100844.13;1668683;84;21008;-86
2022/07/15 05:14:53;;;;;;;8.93;1.30;;;;;;;29.08;50.27;100844.91;1661235;84;21077;-86
2022/07/15 05:17:22;;;;;;;3.25;1.40;;;;;;;30.37;47.21;100849.89;1677271;83;21077;-87
2022/07/15 05:19:49;;;;;;;5.92;1.22;;;;;;;31.39;44.90;100854.41;1711556;83;21057;-86
2022/07/15 05:22:16;;;;;;;4.58;1.27;;;;;;;32.74;43.73;100847.27;1711616;82;21057;-84
2022/07/15 05:24:44;;;;;;;4.03;1.35;;;;;;;34.03;41.58;100847.53;1711482;82;21137;-85
2022/07/15 05:27:11;;;;;;;4.25;1.80;;;;;;;34.93;39.58;100855.55;1710832;82;21080;-85
2022/07/15 05:29:37;;;;;;;4.40;1.37;;;;;;;35.57;37.35;100855.17;1657937;84;21788;-88
2022/07/15 05:32:05;;;;;;;2.83;1.20;;;;;;;33.91;35.31;100864.82;1707482;82;21059;-84
2022/07/15 05:34:32;;;;;;;3.40;1.50;;;;;;;31.95;35.01;100861.44;1676351;82;21063;-85
2022/07/15 05:36:58;;;;;;;2.62;1.15;;;;;;;31.32;36.65;100857.11;1643585;84;21154;-86
2022/07/15 05:39:25;;;;;;;4.58;1.65;;;;;;;31.56;36.77;100870.60;1649916;84;21162;-85
2022/07/15 05:41:52;;;;;;;4.80;1.52;;;;;;;31.83;35.12;100863.55;1671294;84;21887;-85
2022/07/15 05:44:21;;;;;;;4.35;1.27;;;;;;;32.11;35.50;100867.67;1667392;83;21660;-85
2022/07/15 05:46:47;;;;;;;4.47;1.47;;;;;;;32.02;34.02;100861.91;1699974;83;21061;-85
2022/07/15 05:49:17;;;;;;;3.50;1.12;;;;;;;30.30;33.60;100857.50;1699818;83;21452;-85
2022/07/15 05:51:44;;;;;;;9.00;1.47;;;;;;;28.59;34.32;100862.25;1700075;83;21140;-85
2022/07/15 05:54:14;;;;;;;4.10;1.52;;;;;;;27.16;35.13;100871.34;1700148;83;21625;-85
2022/07/15 05:56:42;;;;;;;4.17;1.57;;;;;;;25.91;35.81;100875.30;1699537;83;21101;-85
2022/07/15 05:59:09;;;;;;;4.20;1.30;;;;;;;24.88;36.48;100877.48;1696579;83;21091;-85
2022/07/15 06:01:35;;;;;;;3.50;1.30;;;;;;;24.08;37.39;100880.75;1699863;83;21529;-85
2022/07/15 06:04:02;;;;;;;2.37;1.30;;;;;;;23.50;38.33;100883.25;1699449;82;21181;-85
2022/07/15 06:06:30;;;;;;;4.17;1.52;;;;;;;23.07;38.89;100887.91;1700082;83;22822;-85
2022/07/15 06:08:56;;;;;;;3.65;1.25;;;;;;;22.66;39.63;100892.41;1697580;82;21065;-84
2022/07/15 06:11:23;;;;;;;7.58;2.10;;;;;;;22.30;40.22;100896.80;1722055;82;21456;-85
2022/07/15 06:13:50;;;;;;;3.95;1.70;;;;;;;22.04;40.81;100892.82;1721945;82;21085;-85
2022/07/15 06:16:17;;;;;;;3.90;1.40;;;;;;;21.89;41.25;100891.33;1722536;82;21571;-86
2022/07/15 06:18:43;;;;;;;3.75;2.12;;;;;;;21.85;41.63;100889.62;1722363;82;22572;-85
2022/07/15 06:21:11;;;;;;;3.87;1.20;;;;;;;22.03;41.83;100896.40;1721857;82;21051;-86
2022/07/15 06:23:38;;;;;;;3.58;1.50;;;;;;;22.10;41.71;100895.36;1679427;83;21087;-85
2022/07/15 06:26:05;;;;;;;3.47;1.40;;;;;;;21.95;41.73;100898.36;1695586;82;21070;-86
2022/07/15 06:28:31;;;;;;;3.27;1.42;;;;;;;21.50;41.77;100909.03;1688772;83;21117;-85
2022/07/15 06:30:58;;;;;;;5.92;1.37;;;;;;;21.07;42.22;100903.89;1707011;82;21742;-85
2022/07/15 06:33:27;;;;;;;3.87;1.22;;;;;;;20.41;43.08;100912.85;1687498;83;21107;-86
2022/07/15 06:35:54;;;;;;;4.30;1.75;;;;;;;20.41;43.08;100912.85;1696767;82;21108;-87
2022/07/15 06:38:21;;;;;;;4.12;1.12;;;;;;;19.80;44.31;100905.09;1687804;83;21090;-86
2022/07/15 06:40:49;;;;;;;2.98;1.15;;;;;;;19.80;44.31;100905.09;1688999;83;21162;-85
2022/07/15 06:43:15;;;;;;;5.00;1.12;;;;;;;19.61;44.74;100915.95;1681951;83;22585;-86
2022/07/15 06:45:42;;;;;;;4.17;1.57;;;;;;;19.49;45.13;100915.18;1678534;83;21088;-85
2022/07/15 06:48:09;;;;;;;4.15;1.57;;;;;;;19.38;45.31;100912.59;1674128;83;21147;-86
2022/07/15 06:50:36;;;;;;;3.75;1.40;;;;;;;19.31;45.63;100917.55;1690041;83;21051;-86
2022/07/15 06:53:02;;;;;;;7.97;1.25;;;;;;;19.35;45.79;100924.20;1686090;83;21173;-86
2022/07/15 06:55:31;;;;;;;6.47;2.08;;;;;;;19.46;45.94;100925.41;1694839;83;21752;-86
2022/07/15 06:57:58;;;;;;;5.95;1.98;;;;;;;19.54;45.79;100924.92;1691408;83;21743;-85
2022/07/15 07:00:25;;;;;;;8.08;2.27;;;;;;;19.40;45.62;100917.47;1693566;83;22129;-86
2022/07/15 07:02:52;;;;;;;3.65;1.20;;;;;;;19.16;45.74;100918.55;1688110;83;21132;-84
2022/07/15 07:05:18;;;;;;;4.33;1.60;;;;;;;18.98;46.08;100916.92;1697373;83;21086;-86
2022/07/15 07:07:45;;;;;;;7.20;1.90;;;;;;;18.81;46.41;100911.24;1686204;83;22537;-86
2022/07/15 07:10:14;;;;;;;10.53;1.47;;;;;;;18.75;46.94;100904.59;1669926;84;21175;-86
2022/07/15 07:12:40;;;;;;;5.37;1.42;;;;;;;18.77;47.20;100912.13;1652691;85;21164;-85
2022/07/15 07:15:07;;;;;;;5.30;1.70;;;;;;;18.91;47.21;100916.06;1670319;85;21156;-86
2022/07/15 07:17:34;;;;;;;7.53;2.60;;;;;;;19.10;47.34;100912.81;1670417;85;21013;-86
2022/07/15 07:20:01;;;;;;;6.85;2.02;;;;;;;19.35;47.05;100911.28;1670308;85;21736;-86
2022/07/15 07:22:28;;;;;;;4.37;1.72;;;;;;;19.53;46.54;100914.25;1670379;84;21100;-85
2022/07/15 07:24:55;;;;;;;6.70;1.55;;;;;;;19.58;46.06;100915.09;1670420;85;21064;-86
2022/07/15 07:27:22;;;;;;;6.00;1.77;;;;;;;19.70;46.15;100914.08;1664400;84;21088;-86
2022/07/15 07:29:48;;;;;;;3.30;1.30;;;;;;;19.99;45.89;100910.69;1669095;84;21649;-86
2022/07/15 07:32:15;;;;;;;5.62;1.92;;;;;;;20.22;45.45;100907.31;1670093;84;22610;-86
2022/07/15 07:34:42;;;;;;;5.37;1.72;;;;;;;20.52;45.23;100915.39;1666374;85;21100;-85
2022/07/15 07:37:10;;;;;;;4.80;1.45;;;;;;;20.66;44.94;100928.13;1663373;85;21135;-86
2022/07/15 07:39:38;;;;;;;6.60;1.77;;;;;;;20.70;44.67;100919.62;1667731;85;21670;-85
2022/07/15 07:42:06;;;;;;;6.95;2.08;;;;;;;20.59;44.69;100923.30;1667032;85;22152;-85
2022/07/15 07:44:33;;;;;;;6.15;1.72;;;;;;;20.57;44.79;100932.23;1670619;85;22116;-85
2022/07/15 07:47:00;;;;;;;5.10;1.42;;;;;;;20.68;44.83;100944.16;1672124;84;21084;-85
2022/07/15 07:49:30;;;;;;;5.97;1.50;;;;;;;20.85;44.87;100950.62;1672306;84;21096;-85
2022/07/15 07:51:56;;;;;;;6.05;1.57;;;;;;;20.85;44.87;100950.62;1695386;83;21109;-85
2022/07/15 07:54:26;;;;;;;7.30;1.90;;;;;;;21.05;44.82;100950.34;1646499;85;36669;-85
2022/07/15 07:56:52;;;;;;;3.87;1.52;;;;;;;21.23;44.71;100952.73;1669883;85;22834;-85
2022/07/15 07:59:24;;;;;;;5.05;0.82;;;;;;;21.48;44.65;100955.91;1672428;84;21173;-85
2022/07/15 08:01:51;;;;;;;2.90;1.00;;;;;;;21.48;44.65;100955.91;1669614;84;21123;-85
2022/07/15 08:04:18;;;;;;;6.00;2.30;;;;;;;21.60;44.38;100963.31;1669609;84;21027;-85
2022/07/15 08:06:45;;;;;;;5.33;1.50;;;;;;;21.56;43.79;100969.17;1651705;85;21116;-85
2022/07/15 08:09:12;;;;;;;6.37;1.75;;;;;;;21.26;43.75;100943.76;1696208;83;21951;-85
2022/07/15 08:11:39;;;;;;;3.40;1.17;;;;;;;21.34;43.87;100981.98;1668081;84;21144;-85
2022/07/15 08:14:05;;;;;;;3.35;1.77;;;;;;;21.26;43.90;100970.06;1672100;85;21697;-85
2022/07/15 08:16:34;;;;;;;2.35;0.98;;;;;;;21.27;44.00;100976.33;1671337;85;21127;-85
2022/07/15 08:19:01;;;;;;;6.78;2.50;;;;;;;21.30;44.10;100973.16;1671277;85;21556;-85
2022/07/15 08:21:28;;;;;;;4.05;1.65;;;;;;;21.41;44.10;100986.34;1672114;84;21740;-85
2022/07/15 08:23:55;;;;;;;2.00;0.90;;;;;;;21.38;44.13;100980.16;1671130;84;21461;-86
2022/07/15 08:26:23;;;;;;;3.83;1.40;;;;;;;21.07;43.99;100969.47;1668378;85;21132;-87
2022/07/15 08:28:51;;;;;;;3.75;2.60;;;;;;;21.07;43.99;100969.47;1672099;85;21096;-85
2022/07/15 08:31:19;;;;;;;2.35;1.30;;;;;;;21.27;44.20;100982.56;1672086;84;21104;-86
2022/07/15 08:33:46;;;;;;;3.22;2.10;;;;;;;21.54;44.35;100984.39;1672066;85;21842;-86
2022/07/15 08:36:12;;;;;;;7.35;1.92;;;;;;;21.73;43.89;100976.92;1672026;84;21123;-86
2022/07/15 08:38:39;;;;;;;6.03;1.30;;;;;;;22.01;43.78;100979.98;1671522;84;21135;-86
2022/07/15 08:41:06;;;;;;;3.75;1.32;;;;;;;22.29;43.61;100975.47;1671694;84;21560;-86
2022/07/15 08:43:34;;;;;;;5.25;2.33;;;;;;;22.59;43.31;100982.00;1646644;85;21732;-86
2022/07/15 08:46:01;;;;;;;5.75;1.90;;;;;;;22.63;42.71;100984.16;1670464;84;22262;-86
2022/07/15 08:48:29;;;;;;;3.67;2.10;;;;;;;22.65;42.48;100983.66;1679912;83;21078;-86
2022/07/15 08:51:00;;;;;;;3.22;1.30;;;;;;;22.63;41.93;100995.77;1699607;83;21101;-86
2022/07/15 08:53:30;;;;;;;3.58;2.17;;;;;;;22.51;41.82;100999.59;1671560;85;21491;-85
2022/07/15 08:56:01;;;;;;;8.33;3.12;;;;;;;22.21;41.99;100986.31;1650582;85;21021;-85
2022/07/15 08:58:27;;;;;;;5.47;2.10;;;;;;;22.14;42.06;100997.59;1670385;84;21807;-85
2022/07/15 09:00:54;;;;;;;5.03;1.98;;;;;;;22.05;42.06;100998.23;1670318;84;21566;-86
2022/07/15 09:03:21;;;;;;;4.97;2.80;;;;;;;22.04;42.14;100999.16;1670060;85;21895;-86
2022/07/15 09:05:47;;;;;;;5.72;2.25;;;;;;;22.12;42.11;101006.13;1670006;85;21516;-86
2022/07/15 09:08:16;;;;;;;13.28;2.67;;;;;;;22.10;42.09;100997.70;1670294;85;21104;-86
2022/07/15 09:10:57;;;;;;;6.25;2.10;;;;;;;22.17;42.31;101024.83;1670442;84;21803;-85
2022/07/15 09:13:40;;;;;;;4.28;1.70;;;;;;;22.13;42.04;101003.02;1669193;84;21081;-86
2022/07/15 09:16:19;;;;;;;7.62;2.30;;;;;;;22.05;42.27;101011.64;1670634;85;21657;-86
2022/07/15 09:18:44;;;;;;;6.00;2.08;;;;;;;21.94;42.19;101010.48;1666730;84;21085;-85
2022/07/15 09:21:22;;;;;;;4.50;1.67;;;;;;;21.76;42.18;101012.17;1670057;85;21100;-86
2022/07/15 09:23:50;;;;;;;5.28;2.08;;;;;;;21.76;42.50;101012.17;1670496;85;22289;-86
2022/07/15 09:26:32;;;;;;;6.60;2.15;;;;;;;21.84;42.66;101008.89;1670626;84;21030;-86
2022/07/15 09:28:59;;;;;;;5.17;1.60;;;;;;;21.96;42.49;101005.10;1671516;84;21053;-85
2022/07/15 09:34:22;;;;;;;5.62;1.60;;;;;;;21.77;42.51;101009.44;1669643;84;21488;-85
2022/07/15 09:36:52;;;;;;;5.95;1.80;;;;;;;21.70;42.50;101015.84;1671673;85;21760;-85
2022/07/15 09:39:24;;;;;;;4.58;1.72;;;;;;;21.61;42.77;101005.27;1670604;85;21100;-85
2022/07/15 09:41:51;;;;;;;5.40;1.75;;;;;;;21.75;43.06;101007.25;1671347;85;21037;-85
2022/07/15 09:44:21;;;;;;;7.87;5.37;;;;;;;21.82;43.06;101002.68;1670941;85;21017;-85
2022/07/15 09:46:59;;;;;;;3.92;2.30;;;;;;;21.85;42.85;101012.89;1670865;84;21184;-85
2022/07/15 09:49:33;;;;;;;5.40;2.45;;;;;;;22.09;42.82;101009.33;1669248;84;22279;-85
2022/07/15 09:52:13;;;;;;;4.00;2.00;;;;;;;22.09;42.82;101009.33;1668744;85;21005;-85
2022/07/15 09:54:44;;;;;;;3.47;1.85;;;;;;;22.37;42.77;101020.91;1668947;85;21038;-86
2022/07/15 09:57:16;;;;;;;3.47;1.92;;;;;;;22.48;42.73;101012.19;1670603;85;21007;-85
2022/07/15 09:59:44;;;;;;;4.97;2.05;;;;;;;22.56;42.28;101018.30;1671687;84;21431;-85
2022/07/15 10:02:14;;;;;;;3.77;1.50;;;;;;;22.63;42.10;101021.26;1666797;84;21597;-85
2022/07/15 10:04:47;;;;;;;3.60;1.30;;;;;;;22.66;42.02;101017.18;1670400;84;21080;-86
2022/07/15 10:07:13;;;;;;;3.87;1.35;;;;;;;22.67;41.74;101014.03;1670100;85;21536;-86
2022/07/15 10:09:41;;;;;;;4.62;1.40;;;;;;;22.64;41.86;101026.19;1670253;85;21188;-85
2022/07/15 10:12:13;;;;;;;4.97;1.27;;;;;;;22.56;41.79;101022.33;1669459;85;21812;-85
2022/07/15 10:15:11;;;;;;;3.58;1.40;;;;;;;22.61;42.05;101010.14;1668542;85;21780;-85
2022/07/15 10:18:01;;;;;;;4.33;1.47;;;;;;;22.54;41.49;101040.69;1645728;85;22424;-85
2022/07/15 10:20:42;;;;;;;3.98;0.80;;;;;;;22.15;41.49;101042.74;1668916;85;21143;-85
2022/07/15 10:23:29;;;;;;;3.47;1.17;;;;;;;22.12;42.01;101037.42;1669742;85;21602;-86
2022/07/15 10:26:16;;;;;;;4.92;1.72;;;;;;;21.97;41.81;101035.03;1615795;88;22343;-85
2022/07/15 10:29:03;;;;;;;3.60;1.50;;;;;;;21.62;42.11;101034.69;1695888;83;21082;-85
2022/07/15 10:31:32;;;;;;;3.55;1.40;;;;;;;21.31;42.77;101035.14;1676370;83;21149;-85
2022/07/15 10:34:15;;;;;;;5.10;2.22;;;;;;;21.46;43.17;101036.74;1670344;85;21116;-86
2022/07/15 10:36:51;;;;;;;4.28;1.62;;;;;;;21.66;43.36;101033.76;1670474;85;21096;-85
2022/07/15 10:39:20;;;;;;;4.30;1.92;;;;;;;21.93;43.41;101034.19;1671470;85;21437;-86
2022/07/15 10:42:02;;;;;;;2.35;1.12;;;;;;;22.15;43.06;101040.06;1671752;84;22545;-86
2022/07/15 10:44:34;;;;;;;3.62;1.77;;;;;;;22.25;42.77;101032.30;1670098;84;21053;-85
2022/07/15 10:47:19;;;;;;;;;;;;;;;22.21;42.55;101039.06;1653068;85;21423;-86
2022/07/15 10:49:47;;;;;;;4.95;1.75;;;;;;;22.05;42.41;101036.64;1671125;84;20970;-85
2022/07/15 10:52:29;;;;;;;4.87;1.62;;;;;;;21.83;42.64;101040.17;1667337;83;21469;-85
2022/07/15 10:55:08;;;;;;;4.78;1.75;;;;;;;21.62;42.62;101045.41;1667791;85;21813;-86
2022/07/15 10:57:50;;;;;;;3.37;1.35;;;;;;;21.31;42.88;101049.00;1664635;85;21093;-86
2022/07/15 11:00:31;;;;;;;8.90;2.75;;;;;;;20.93;43.43;101044.61;1666470;85;21107;-85
2022/07/15 11:03:08;;;;;;;4.78;2.00;;;;;;;20.84;43.91;101043.84;1669990;85;21151;-86
2022/07/15 11:05:56;;;;;;;3.80;1.57;;;;;;;20.72;43.87;101045.77;1665059;84;21081;-85
2022/07/15 11:08:40;;;;;;;10.90;3.12;;;;;;;20.68;44.29;101053.38;1666325;85;22221;-86
2022/07/15 11:11:21;;;;;;;4.00;1.62;;;;;;;20.73;44.52;101044.84;1667605;85;21085;-86
2022/07/15 11:13:50;;;;;;;5.30;2.15;;;;;;;21.00;44.94;101057.89;1668900;85;21068;-86
2022/07/15 11:16:20;;;;;;;8.53;2.50;;;;;;;21.29;44.36;101050.35;1670212;85;21616;-85
2022/07/15 11:18:55;;;;;;;5.95;2.30;;;;;;;21.49;44.24;101052.78;1671699;85;21550;-86
2022/07/15 11:21:21;;;;;;;3.77;1.62;;;;;;;22.35;44.22;101046.87;1671537;85;22515;-86
2022/07/15 11:23:49;;;;;;;8.90;2.12;;;;;;;22.35;44.22;101046.87;1671141;85;21044;-85
2022/07/15 11:26:17;;;;;;;4.55;1.72;;;;;;;22.75;43.56;101060.83;1670039;85;21432;-85
2022/07/15 11:28:50;;;;;;;3.08;1.40;;;;;;;22.77;42.87;101058.99;1669784;85;21077;-86
2022/07/15 11:31:17;;;;;;;7.00;1.60;;;;;;;22.79;42.67;101062.56;1665690;84;21438;-85
2022/07/15 11:33:43;;;;;;;5.22;1.45;;;;;;;22.87;42.62;101065.95;1671481;85;21556;-86
2022/07/15 11:36:20;;;;;;;5.85;1.57;;;;;;;22.99;42.41;101060.34;1673941;84;21076;-85
2022/07/15 11:38:46;;;;;;;4.37;1.50;;;;;;;23.15;42.12;101066.28;1670118;85;21876;-85